createdAt,value
2022-09-15T00:01:09.050Z,98271.00
2022-09-15T00:03:35.974Z,98269.47
2022-09-15T00:06:02.932Z,98261.84
2022-09-15T00:08:30.499Z,98268.34
2022-09-15T00:11:08.008Z,98260.69
2022-09-15T00:13:36.696Z,98267.53
2022-09-15T00:16:05.051Z,98263.00
2022-09-15T00:18:31.934Z,98270.22
2022-09-15T00:20:59.094Z,98266.03
2022-09-15T00:23:25.883Z,98261.84
2022-09-15T00:25:53.605Z,98266.03
2022-09-15T00:28:22.401Z,98263.75
2022-09-15T00:30:51.905Z,98264.50
2022-09-15T00:33:20.203Z,98263.75
2022-09-15T00:35:49.976Z,98262.19
2022-09-15T00:38:17.854Z,98264.09
2022-09-15T00:41:04.233Z,98271.00
2022-09-15T00:43:55.414Z,98273.28
2022-09-15T00:46:51.797Z,98269.84
2022-09-15T00:49:36.697Z,98270.59
2022-09-15T00:52:17.887Z,98279.75
2022-09-15T00:54:59.738Z,98295.75
2022-09-15T00:57:58.150Z,98279.34
2022-09-15T01:00:26.992Z,98283.53
2022-09-15T01:02:54.627Z,98275.94
2022-09-15T01:05:26.959Z,98275.19
2022-09-15T01:07:59.367Z,98274.41
2022-09-15T01:10:33.428Z,98272.88
2022-09-15T01:13:03.138Z,98270.22
2022-09-15T01:15:57.491Z,98281.28
2022-09-15T01:22:14.869Z,98268.34
2022-09-15T01:24:44.260Z,98264.50
2022-09-15T01:27:42.071Z,98253.09
2022-09-15T01:30:16.252Z,98260.69
2022-09-15T01:33:04.473Z,98261.84
2022-09-15T01:35:42.978Z,98275.53
2022-09-15T01:38:30.996Z,98267.19
2022-09-15T01:41:01.574Z,98259.16
2022-09-15T01:43:30.772Z,98251.16
2022-09-15T01:45:59.325Z,98255.75
2022-09-15T01:48:29.034Z,98265.66
2022-09-15T01:51:00.604Z,98248.84
2022-09-15T01:53:28.848Z,98247.72
2022-09-15T01:56:06.946Z,98241.63
2022-09-15T01:58:34.772Z,98236.31
2022-09-15T02:01:45.302Z,98241.97
2022-09-15T02:04:20.179Z,98238.56
2022-09-15T02:07:02.719Z,98228.66
2022-09-15T02:09:35.135Z,98220.28
2022-09-15T02:12:10.755Z,98220.28
2022-09-15T02:15:00.097Z,98221.06
2022-09-15T02:17:29.926Z,98223.34
2022-09-15T02:20:07.335Z,98218.00
2022-09-15T02:22:38.031Z,98216.50
2022-09-15T02:25:13.178Z,98220.31
2022-09-15T02:27:52.900Z,98219.94
2022-09-15T02:30:21.509Z,98227.16
2022-09-15T02:33:01.587Z,98227.91
2022-09-15T02:35:31.260Z,98234.72
2022-09-15T02:37:59.956Z,98235.84
2022-09-15T02:40:29.138Z,98224.78
2022-09-15T02:42:59.950Z,98234.69
2022-09-15T02:45:28.308Z,98232.78
2022-09-15T02:47:55.101Z,98221.00
2022-09-15T02:50:21.785Z,98233.50
2022-09-15T02:52:48.538Z,98235.81
2022-09-15T02:55:15.324Z,98227.03
2022-09-15T02:57:42.034Z,98233.13
2022-09-15T03:00:09.654Z,98229.28
2022-09-15T03:02:36.421Z,98237.69
2022-09-15T03:05:03.320Z,98237.72
2022-09-15T03:07:30.093Z,98242.22
2022-09-15T03:09:56.985Z,98240.66
2022-09-15T03:12:24.074Z,98232.63
2022-09-15T03:14:51.155Z,98245.59
2022-09-15T03:17:18.834Z,98235.31
2022-09-15T03:19:45.517Z,98229.22
2022-09-15T03:22:12.321Z,98228.84
2022-09-15T03:24:39.066Z,98242.16
2022-09-15T03:27:06.150Z,98227.31
2022-09-15T03:29:32.865Z,98234.19
2022-09-15T03:31:59.663Z,98250.16
2022-09-15T03:34:26.487Z,98239.50
2022-09-15T03:36:53.195Z,98245.16
2022-09-15T03:39:20.103Z,98246.69
2022-09-15T03:41:46.817Z,98236.75
2022-09-15T03:44:13.671Z,98249.31
2022-09-15T03:46:40.426Z,98260.34
2022-09-15T03:49:07.157Z,98250.13
2022-09-15T03:51:33.938Z,98256.97
2022-09-15T03:54:00.662Z,98240.25
2022-09-15T03:56:32.905Z,98239.53
2022-09-15T03:59:01.117Z,98239.59
2022-09-15T04:01:29.461Z,98246.84
2022-09-15T04:03:56.556Z,98238.50
2022-09-15T04:06:23.858Z,98245.34
2022-09-15T04:08:51.817Z,98251.09
2022-09-15T04:11:20.931Z,98249.50
2022-09-15T04:13:48.367Z,98249.16
2022-09-15T04:16:19.004Z,98246.50
2022-09-15T04:18:46.320Z,98247.66
2022-09-15T04:21:15.773Z,98247.63
2022-09-15T04:23:43.651Z,98259.03
2022-09-15T04:26:27.710Z,98261.69
2022-09-15T04:28:54.571Z,98253.69
2022-09-15T04:31:21.457Z,98258.25
2022-09-15T04:33:48.340Z,98259.38
2022-09-15T04:36:18.267Z,98256.34
2022-09-15T04:38:46.033Z,98244.50
2022-09-15T04:41:14.831Z,98252.53
2022-09-15T04:43:42.624Z,98245.28
2022-09-15T04:46:09.786Z,98245.28
2022-09-15T04:48:37.053Z,98251.38
2022-09-15T04:51:11.496Z,98248.34
2022-09-15T04:53:38.789Z,98245.28
2022-09-15T04:56:08.384Z,98239.59
2022-09-15T04:58:37.094Z,98228.53
2022-09-15T05:01:12.029Z,98224.34
2022-09-15T05:03:39.738Z,98217.38
2022-09-15T05:06:08.146Z,98221.16
2022-09-15T05:08:35.287Z,98226.13
2022-09-15T05:11:04.198Z,98238.66
2022-09-15T05:13:31.147Z,98249.69
2022-09-15T05:16:05.100Z,98251.19
2022-09-15T05:18:32.077Z,98240.09
2022-09-15T05:21:03.710Z,98251.53
2022-09-15T05:23:31.978Z,98257.22
2022-09-15T05:26:00.552Z,98262.25
2022-09-15T05:28:29.432Z,98267.22
2022-09-15T05:30:56.327Z,98278.28
2022-09-15T05:33:23.998Z,98270.41
2022-09-15T05:36:00.579Z,98281.84
2022-09-15T05:38:30.159Z,98289.47
2022-09-15T05:41:08.102Z,98291.03
2022-09-15T05:43:36.471Z,98296.72
2022-09-15T05:46:04.489Z,98290.25
2022-09-15T05:48:31.460Z,98290.59
2022-09-15T05:50:58.698Z,98290.22
2022-09-15T05:53:26.232Z,98284.91
2022-09-15T05:55:59.421Z,98283.00
2022-09-15T05:58:26.991Z,98283.78
2022-09-15T06:00:54.743Z,98297.09
2022-09-15T06:03:25.301Z,98297.16
2022-09-15T06:06:01.943Z,98298.00
2022-09-15T06:08:34.536Z,98296.09
2022-09-15T06:11:13.027Z,98294.19
2022-09-15T06:13:40.026Z,98302.19
2022-09-15T06:16:09.545Z,98305.28
2022-09-15T06:18:37.670Z,98303.38
2022-09-15T06:21:12.268Z,98301.09
2022-09-15T06:23:40.056Z,98299.56
2022-09-15T06:26:14.799Z,98313.69
2022-09-15T06:28:47.647Z,98316.34
2022-09-15T06:31:15.466Z,98320.91
2022-09-15T06:33:44.509Z,98324.38
2022-09-15T06:36:12.727Z,98341.50
2022-09-15T06:38:40.659Z,98337.72
2022-09-15T06:41:08.024Z,98335.81
2022-09-15T06:43:35.852Z,98335.81
2022-09-15T06:46:03.431Z,98346.47
2022-09-15T06:48:30.901Z,98343.09
2022-09-15T06:50:58.234Z,98338.09
2022-09-15T06:53:25.200Z,98342.28
2022-09-15T06:55:51.991Z,98349.16
2022-09-15T06:58:18.704Z,98358.69
2022-09-15T07:00:45.815Z,98368.97
2022-09-15T07:03:12.674Z,98370.53
2022-09-15T07:05:39.469Z,98370.50
2022-09-15T07:08:06.792Z,98369.38
2022-09-15T07:10:33.586Z,98371.25
2022-09-15T07:13:00.346Z,98361.31
2022-09-15T07:15:27.096Z,98368.94
2022-09-15T07:17:53.858Z,98357.09
2022-09-15T07:20:20.958Z,98349.06
2022-09-15T07:22:47.799Z,98347.53
2022-09-15T07:25:14.507Z,98342.94
2022-09-15T07:27:41.241Z,98341.38
2022-09-15T07:30:08.371Z,98339.09
2022-09-15T07:32:35.042Z,98339.50
2022-09-15T07:35:02.312Z,98337.19
2022-09-15T07:37:29.130Z,98341.00
2022-09-15T07:39:55.847Z,98332.59
2022-09-15T07:42:22.825Z,98338.31
2022-09-15T07:44:49.580Z,98337.16
2022-09-15T07:47:16.302Z,98334.91
2022-09-15T07:49:43.054Z,98327.97
2022-09-15T07:52:10.209Z,98326.84
2022-09-15T07:54:36.966Z,98330.63
2022-09-15T07:57:03.823Z,98327.94
2022-09-15T07:59:30.575Z,98328.34
2022-09-15T08:01:57.381Z,98341.72
2022-09-15T08:04:24.165Z,98355.47
2022-09-15T08:06:50.896Z,98361.94
2022-09-15T08:09:17.727Z,98357.34
2022-09-15T08:11:44.556Z,98355.44
2022-09-15T08:14:11.254Z,98358.88
2022-09-15T08:16:38.688Z,98360.00
2022-09-15T08:19:05.397Z,98370.69
2022-09-15T08:21:32.239Z,98376.44
2022-09-15T08:24:00.087Z,98378.38
2022-09-15T08:26:29.045Z,98379.13
2022-09-15T08:28:55.824Z,98365.00
2022-09-15T08:31:23.139Z,98360.81
2022-09-15T08:33:51.253Z,98361.59
2022-09-15T08:36:18.182Z,98342.91
2022-09-15T08:38:45.644Z,98345.59
2022-09-15T08:41:22.455Z,98340.59
2022-09-15T08:44:21.314Z,98331.81
2022-09-15T08:46:58.986Z,98323.06
2022-09-15T08:50:07.129Z,98324.94
2022-09-15T08:52:41.688Z,98323.44
2022-09-15T08:55:38.696Z,98334.88
2022-09-15T08:58:05.944Z,98332.94
2022-09-15T09:00:33.536Z,98329.09
2022-09-15T09:03:33.426Z,98325.25
2022-09-15T09:06:28.292Z,98323.31
2022-09-15T09:09:00.812Z,98321.72
2022-09-15T09:11:30.371Z,98331.28
2022-09-15T09:14:08.568Z,98317.88
2022-09-15T09:17:06.022Z,98319.78
2022-09-15T09:19:53.171Z,98313.66
2022-09-15T09:22:30.893Z,98309.09
2022-09-15T09:25:00.221Z,98305.25
2022-09-15T09:27:34.242Z,98307.16
2022-09-15T09:30:13.270Z,98309.84
2022-09-15T09:32:43.626Z,98316.72
2022-09-15T09:35:19.572Z,98316.31
2022-09-15T09:37:46.414Z,98310.22
2022-09-15T09:40:17.447Z,98301.84
2022-09-15T09:42:45.454Z,98302.63
2022-09-15T09:45:14.679Z,98300.31
2022-09-15T09:47:42.269Z,98292.28
2022-09-15T09:50:53.939Z,98282.75
2022-09-15T09:53:29.724Z,98262.50
2022-09-15T09:56:24.212Z,98257.97
2022-09-15T09:58:51.359Z,98246.91
2022-09-15T10:01:20.867Z,98259.56
2022-09-15T10:03:47.761Z,98258.03
2022-09-15T10:06:22.368Z,98262.66
2022-09-15T10:09:01.208Z,98269.53
2022-09-15T10:11:41.404Z,98274.16
2022-09-15T10:14:19.105Z,98275.69
2022-09-15T10:17:00.501Z,98270.75
2022-09-15T10:19:29.917Z,98273.03
2022-09-15T10:21:58.632Z,98272.31
2022-09-15T10:24:31.427Z,98273.47
2022-09-15T10:27:18.839Z,98271.53
2022-09-15T10:29:47.042Z,98271.91
2022-09-15T10:32:32.594Z,98283.41
2022-09-15T10:35:13.846Z,98279.19
2022-09-15T10:37:55.000Z,98283.78
2022-09-15T10:40:33.786Z,98280.75
2022-09-15T10:43:15.085Z,98285.31
2022-09-15T10:45:48.645Z,98291.44
2022-09-15T10:48:26.943Z,98287.97
2022-09-15T10:51:24.094Z,98279.97
2022-09-15T10:54:28.874Z,98277.28
2022-09-15T10:57:04.601Z,98270.84
2022-09-15T10:59:39.638Z,98272.75
2022-09-15T11:02:35.266Z,98274.25
2022-09-15T11:05:22.488Z,98267.78
2022-09-15T11:08:05.165Z,98276.19
2022-09-15T11:10:59.347Z,98278.88
2022-09-15T11:13:39.915Z,98276.94
2022-09-15T11:16:35.763Z,98271.22
2022-09-15T11:19:28.259Z,98271.22
2022-09-15T11:22:01.191Z,98275.03
2022-09-15T11:24:39.812Z,98270.47
2022-09-15T11:27:35.559Z,98264.38
2022-09-15T11:30:19.513Z,98255.97
2022-09-15T11:33:26.021Z,98260.56
2022-09-15T11:36:07.824Z,98259.81
2022-09-15T11:38:56.791Z,98256.78
2022-09-15T11:41:48.913Z,98246.09
2022-09-15T11:44:25.204Z,98254.13
2022-09-15T11:47:10.346Z,98247.63
2022-09-15T11:49:48.865Z,98248.00
2022-09-15T11:52:35.515Z,98253.34
2022-09-15T11:55:02.157Z,98258.34
2022-09-15T11:57:36.650Z,98254.53
2022-09-15T12:00:11.727Z,98262.56
2022-09-15T12:03:10.524Z,98253.81
2022-09-15T12:05:45.419Z,98256.06
2022-09-15T12:08:16.830Z,98251.16
2022-09-15T12:10:48.590Z,98252.31
2022-09-15T12:13:26.174Z,98243.91
2022-09-15T12:15:53.723Z,98238.56
2022-09-15T12:18:41.926Z,98240.06
2022-09-15T12:21:27.581Z,98241.22
2022-09-15T12:24:03.723Z,98238.56
2022-09-15T12:26:33.308Z,98237.78
2022-09-15T12:29:02.222Z,98224.81
2022-09-15T12:31:37.697Z,98221.78
2022-09-15T12:34:35.434Z,98220.28
2022-09-15T12:37:15.093Z,98217.63
2022-09-15T12:39:47.005Z,98210.34
2022-09-15T12:42:21.648Z,98210.72
2022-09-15T12:44:55.947Z,98197.38
2022-09-15T12:47:34.657Z,98205.03
2022-09-15T12:50:23.007Z,98190.50
2022-09-15T12:53:21.259Z,98189.00
2022-09-15T12:55:57.660Z,98177.91
2022-09-15T12:58:37.687Z,98167.22
2022-09-15T13:01:19.683Z,98174.06
2022-09-15T13:03:46.716Z,98177.91
2022-09-15T13:06:26.482Z,98176.75
2022-09-15T13:09:02.206Z,98174.88
2022-09-15T13:11:34.968Z,98171.41
2022-09-15T13:14:05.051Z,98167.63
2022-09-15T13:16:41.079Z,98155.78
2022-09-15T13:19:23.338Z,98151.94
2022-09-15T13:22:12.780Z,98145.44
2022-09-15T13:25:03.661Z,98141.25
2022-09-15T13:27:38.205Z,98138.94
2022-09-15T13:30:11.233Z,98140.09
2022-09-15T13:32:50.254Z,98135.13
2022-09-15T13:35:40.205Z,98128.66
2022-09-15T13:38:23.748Z,98137.47
2022-09-15T13:41:17.494Z,98129.47
2022-09-15T13:44:00.554Z,98130.59
2022-09-15T13:46:45.193Z,98132.09
2022-09-15T13:49:17.715Z,98136.63
2022-09-15T13:51:53.469Z,98127.03
2022-09-15T13:54:20.449Z,98124.38
2022-09-15T13:56:47.927Z,98128.19
2022-09-15T13:59:24.157Z,98137.06
2022-09-15T14:01:52.745Z,98128.72
2022-09-15T14:04:37.958Z,98134.81
2022-09-15T14:07:04.862Z,98134.72
2022-09-15T14:09:36.737Z,98140.00
2022-09-15T14:12:09.492Z,98142.22
2022-09-15T14:14:49.780Z,98136.69
2022-09-15T14:17:25.356Z,98143.53
2022-09-15T14:19:54.780Z,98141.25
2022-09-15T14:22:21.601Z,98143.13
2022-09-15T14:24:50.788Z,98143.91
2022-09-15T14:27:22.390Z,98151.13
2022-09-15T14:29:51.810Z,98147.69
2022-09-15T14:32:18.590Z,98146.94
2022-09-15T14:37:27.342Z,98153.75
2022-09-15T14:39:56.845Z,98149.53
2022-09-15T14:42:28.443Z,98169.66
2022-09-15T14:47:42.555Z,98163.06
2022-09-15T14:50:18.210Z,98150.91
2022-09-15T14:53:00.133Z,98159.31
2022-09-15T14:55:30.083Z,98155.06
2022-09-15T14:58:12.539Z,98164.16
2022-09-15T15:01:11.589Z,98152.38
2022-09-15T15:03:42.494Z,98152.81
2022-09-15T15:06:58.861Z,98154.03
2022-09-15T15:09:33.774Z,98167.03
2022-09-15T15:12:06.231Z,98174.69
2022-09-15T15:14:35.814Z,98166.34
2022-09-15T15:17:05.642Z,98178.22
2022-09-15T15:19:39.576Z,98186.69
2022-09-15T15:22:20.448Z,98187.84
2022-09-15T15:24:52.549Z,98190.16
2022-09-15T15:27:34.469Z,98189.03
2022-09-15T15:30:29.124Z,98190.16
2022-09-15T15:33:06.789Z,98180.97
2022-09-15T15:35:34.141Z,98181.78
2022-09-15T15:38:09.926Z,98174.13
2022-09-15T15:40:39.269Z,98165.34
2022-09-15T15:43:16.791Z,98163.41
2022-09-15T15:45:59.037Z,98161.91
2022-09-15T15:48:37.858Z,98175.63
2022-09-15T15:51:06.486Z,98188.66
2022-09-15T15:53:34.010Z,98207.75
2022-09-15T15:56:00.785Z,98214.66
2022-09-15T15:58:27.732Z,98214.28
2022-09-15T16:00:56.688Z,98218.50
2022-09-15T16:03:25.453Z,98216.63
2022-09-15T16:05:53.794Z,98232.66
2022-09-15T16:08:33.352Z,98227.69
2022-09-15T16:11:02.279Z,98233.78
2022-09-15T16:13:30.114Z,98229.22
2022-09-15T16:15:59.399Z,98217.03
2022-09-15T16:18:27.295Z,98225.06
2022-09-15T16:20:54.641Z,98227.00
2022-09-15T16:23:23.264Z,98242.31
2022-09-15T16:26:05.315Z,98249.19
2022-09-15T16:28:32.106Z,98241.63
2022-09-15T16:30:59.819Z,98241.63
2022-09-15T16:33:26.712Z,98240.47
2022-09-15T16:36:00.138Z,98242.00
2022-09-15T16:38:26.841Z,98233.22
2022-09-15T16:40:53.651Z,98241.25
2022-09-15T16:43:22.193Z,98253.44
2022-09-15T16:45:50.670Z,98262.59
2022-09-15T16:48:18.226Z,98264.50
2022-09-15T16:50:56.005Z,98270.59
2022-09-15T16:53:33.654Z,98275.56
2022-09-15T16:56:00.582Z,98272.13
2022-09-15T16:58:27.320Z,98277.84
2022-09-15T17:00:54.247Z,98288.13
2022-09-15T17:03:23.091Z,98279.00
2022-09-15T17:05:52.540Z,98282.03
2022-09-15T17:08:22.324Z,98288.88
2022-09-15T17:10:50.051Z,98288.13
2022-09-15T17:13:25.165Z,98292.69
2022-09-15T17:15:54.968Z,98294.22
2022-09-15T17:18:22.501Z,98288.88
2022-09-15T17:20:50.614Z,98295.00
2022-09-15T17:23:37.884Z,98293.06
2022-09-15T17:26:10.153Z,98291.91
2022-09-15T17:28:38.305Z,98294.19
2022-09-15T17:31:15.926Z,98291.50
2022-09-15T17:33:43.784Z,98293.81
2022-09-15T17:36:11.072Z,98291.13
2022-09-15T17:38:39.398Z,98288.47
2022-09-15T17:41:07.145Z,98286.91
2022-09-15T17:43:33.994Z,98296.78
2022-09-15T17:46:00.753Z,98297.16
2022-09-15T17:48:27.789Z,98293.34
2022-09-15T17:50:54.746Z,98300.19
2022-09-15T17:53:24.170Z,98299.41
2022-09-15T17:55:51.526Z,98299.03
2022-09-15T17:58:18.729Z,98288.00
2022-09-15T18:00:46.988Z,98276.56
2022-09-15T18:03:30.677Z,98270.84
2022-09-15T18:05:59.631Z,98264.38
2022-09-15T18:08:28.571Z,98256.00
2022-09-15T18:10:55.934Z,98254.09
2022-09-15T18:13:26.472Z,98252.19
2022-09-15T18:15:54.666Z,98250.66
2022-09-15T18:18:28.100Z,98253.31
2022-09-15T18:20:57.265Z,98258.28
2022-09-15T18:23:26.925Z,98263.97
2022-09-15T18:25:54.194Z,98262.81
2022-09-15T18:28:21.268Z,98257.47
2022-09-15T18:30:50.486Z,98258.25
2022-09-15T18:33:23.782Z,98255.94
2022-09-15T18:35:54.478Z,98261.25
2022-09-15T18:38:22.766Z,98258.22
2022-09-15T18:40:56.531Z,98258.22
2022-09-15T18:43:26.519Z,98276.44
2022-09-15T18:45:58.475Z,98270.72
2022-09-15T18:48:25.496Z,98273.00
2022-09-15T18:50:52.811Z,98277.94
2022-09-15T18:53:19.572Z,98263.84
2022-09-15T18:55:46.730Z,98258.53
2022-09-15T18:58:14.059Z,98258.53
2022-09-15T19:00:41.908Z,98261.19
2022-09-15T19:03:09.220Z,98265.00
2022-09-15T19:05:37.491Z,98272.63
2022-09-15T19:08:05.721Z,98281.00
2022-09-15T19:10:33.381Z,98287.06
2022-09-15T19:13:06.594Z,98283.66
2022-09-15T19:15:33.781Z,98293.16
2022-09-15T19:18:00.914Z,98306.16
2022-09-15T19:20:28.182Z,98323.66
2022-09-15T19:22:55.043Z,98321.38
2022-09-15T19:25:22.147Z,98321.00
2022-09-15T19:27:49.259Z,98324.03
2022-09-15T19:30:16.481Z,98331.66
2022-09-15T19:32:43.543Z,98335.47
2022-09-15T19:35:10.645Z,98328.53
2022-09-15T19:37:39.566Z,98335.78
2022-09-15T19:40:09.666Z,98336.53
2022-09-15T19:42:41.082Z,98338.44
2022-09-15T19:45:09.429Z,98335.41
2022-09-15T19:47:36.717Z,98335.41
2022-09-15T19:50:05.917Z,98332.00
2022-09-15T19:52:32.992Z,98338.88
2022-09-15T19:55:00.010Z,98344.97
2022-09-15T19:57:27.028Z,98347.22
2022-09-15T19:59:54.422Z,98338.09
2022-09-15T20:02:21.356Z,98343.00
2022-09-15T20:07:33.690Z,98342.47
2022-09-15T20:10:00.451Z,98354.22
2022-09-15T20:12:27.124Z,98358.38
2022-09-15T20:14:53.962Z,98352.66
2022-09-15T20:17:20.698Z,98368.16
2022-09-15T20:19:48.266Z,98354.81
2022-09-15T20:22:14.920Z,98363.91
2022-09-15T20:24:43.410Z,98375.69
2022-09-15T20:27:10.536Z,98364.22
2022-09-15T20:29:37.425Z,98377.91
2022-09-15T20:32:04.264Z,98373.31
2022-09-15T20:34:30.905Z,98369.50
2022-09-15T20:36:57.619Z,98377.84
2022-09-15T20:39:24.388Z,98380.09
2022-09-15T20:41:51.210Z,98388.50
2022-09-15T20:44:17.953Z,98392.34
2022-09-15T20:46:44.925Z,98394.59
2022-09-15T20:49:12.053Z,98402.94
2022-09-15T20:51:38.815Z,98404.06
2022-09-15T20:54:05.699Z,98413.16
2022-09-15T20:56:34.516Z,98421.53
2022-09-15T20:59:02.955Z,98422.53
2022-09-15T21:01:34.496Z,98424.66
2022-09-15T21:04:01.398Z,98438.19
2022-09-15T21:06:28.967Z,98449.88
2022-09-15T21:08:56.251Z,98466.94
2022-09-15T21:11:24.094Z,98452.13
2022-09-15T21:13:51.069Z,98468.00
2022-09-15T21:16:21.492Z,98468.66
2022-09-15T21:18:49.590Z,98474.28
2022-09-15T21:21:24.719Z,98486.00
2022-09-15T21:23:57.522Z,98492.03
2022-09-15T21:26:27.342Z,98504.84
2022-09-15T21:28:56.178Z,98514.66
2022-09-15T21:31:26.257Z,98508.84
2022-09-15T21:33:54.149Z,98518.66
2022-09-15T21:36:23.391Z,98519.31
2022-09-15T21:38:54.947Z,98529.06
2022-09-15T21:41:26.076Z,98543.41
2022-09-15T21:43:54.773Z,98541.44
2022-09-15T21:46:27.049Z,98540.28
2022-09-15T21:48:56.540Z,98548.66
2022-09-15T21:51:25.120Z,98559.31
2022-09-15T21:53:53.939Z,98571.13
2022-09-15T21:56:22.322Z,98561.28
2022-09-15T21:58:51.126Z,98547.25
2022-09-15T22:01:29.759Z,98547.25
2022-09-15T22:03:57.772Z,98551.72
2022-09-15T22:06:28.154Z,98556.22
2022-09-15T22:08:55.119Z,98556.16
2022-09-15T22:11:23.107Z,98559.16
2022-09-15T22:13:49.928Z,98547.75
2022-09-15T22:16:19.610Z,98550.78
2022-09-15T22:18:46.844Z,98534.16
2022-09-15T22:21:18.976Z,98549.28
2022-09-15T22:23:48.035Z,98562.94
2022-09-15T22:26:27.550Z,98566.84
2022-09-15T22:28:56.368Z,98582.06
2022-09-15T22:31:24.777Z,98579.34
2022-09-15T22:33:52.318Z,98595.22
2022-09-15T22:36:28.985Z,98585.25
2022-09-15T22:38:58.337Z,98595.03
2022-09-15T22:41:25.041Z,98602.50
2022-09-15T22:43:52.031Z,98604.66
2022-09-15T22:46:19.816Z,98605.31
2022-09-15T22:48:47.333Z,98607.13
2022-09-15T22:51:14.698Z,98612.44
2022-09-15T22:53:43.094Z,98613.91
2022-09-15T22:56:17.549Z,98623.41
2022-09-15T22:58:44.583Z,98629.06
2022-09-15T23:01:14.935Z,98623.75
2022-09-15T23:03:42.169Z,98631.28
2022-09-15T23:06:09.380Z,98634.31
2022-09-15T23:08:36.776Z,98641.47
2022-09-15T23:11:11.970Z,98635.75
2022-09-15T23:13:39.858Z,98643.28
2022-09-15T23:16:09.462Z,98644.41
2022-09-15T23:18:36.804Z,98649.28
2022-09-15T23:21:08.823Z,98650.94
2022-09-15T23:23:37.302Z,98652.44
2022-09-15T23:26:07.283Z,98650.09
2022-09-15T23:28:34.521Z,98642.47
2022-09-15T23:31:01.777Z,98648.59
2022-09-15T23:33:30.845Z,98639.53
2022-09-15T23:36:02.304Z,98644.06
2022-09-15T23:38:29.170Z,98640.56
2022-09-15T23:40:57.226Z,98647.69
2022-09-15T23:43:24.021Z,98652.47
2022-09-15T23:45:50.756Z,98652.38
2022-09-15T23:48:17.485Z,98657.97
2022-09-15T23:50:44.444Z,98676.03
2022-09-15T23:53:11.298Z,98671.00
2022-09-15T23:55:38.329Z,98668.97
2022-09-15T23:58:05.497Z,98663.19
